Time;durP1;ratioP1;P1;durP2;ratioP2;P2;SDS_P1;SDS_P2;PMS_P1;PMS_P2;Temp;Humidity;BMP_temperature;BMP_pressure;BME280_temperature;BME280_humidity;BME280_pressure;Samples;Min_cycle;Max_cycle;Signal;HPM_P1;HPM_P2
2022/03/23 00:00:43;;;;;;;9.93;7.23;;;;;;;20.12;43.13;102916.81;5031996;28;20279;-64
2022/03/23 00:03:10;;;;;;;12.90;7.65;;;;;;;20.09;42.99;102917.88;5032456;28;20271;-64
2022/03/23 00:05:38;;;;;;;10.52;7.47;;;;;;;20.10;42.93;102916.91;5031580;28;20065;-64
2022/03/23 00:08:03;;;;;;;11.00;7.60;;;;;;;20.10;42.86;102914.25;5032610;28;20435;-64
2022/03/23 00:10:29;;;;;;;13.40;7.95;;;;;;;20.08;42.83;102918.78;5032575;28;20026;-63
2022/03/23 00:12:57;;;;;;;11.82;7.60;;;;;;;20.08;42.68;102913.50;5031169;28;20076;-63
2022/03/23 00:15:22;;;;;;;10.95;7.88;;;;;;;20.09;42.75;102919.63;5032390;28;20030;-63
2022/03/23 00:17:48;;;;;;;12.85;8.00;;;;;;;20.05;42.85;102924.25;5031936;28;20021;-64
2022/03/23 00:20:13;;;;;;;11.95;8.30;;;;;;;20.04;42.90;102916.41;5031721;28;20036;-63
2022/03/23 00:22:38;;;;;;;11.85;7.40;;;;;;;20.04;42.67;102919.91;5032141;28;20168;-63
2022/03/23 00:25:04;;;;;;;12.07;7.68;;;;;;;20.04;42.72;102917.25;5032389;28;20032;-63
2022/03/23 00:27:29;;;;;;;10.35;7.10;;;;;;;20.05;42.68;102918.97;5031627;28;20018;-64
2022/03/23 00:29:55;;;;;;;13.43;7.20;;;;;;;20.07;42.76;102924.19;5032104;28;20029;-63
2022/03/23 00:32:20;;;;;;;11.47;7.93;;;;;;;20.06;42.75;102918.03;5032240;28;20095;-64
2022/03/23 00:34:45;;;;;;;13.07;7.63;;;;;;;20.08;42.42;102918.78;5031374;28;20754;-62
2022/03/23 00:37:11;;;;;;;12.33;7.63;;;;;;;20.08;42.34;102910.84;5032426;28;20271;-62
2022/03/23 00:39:36;;;;;;;13.05;7.28;;;;;;;20.05;42.51;102910.19;5031894;28;20318;-63
2022/03/23 00:42:02;;;;;;;9.77;7.17;;;;;;;20.02;42.49;102911.19;5031480;28;20417;-63
2022/03/23 00:44:27;;;;;;;9.95;7.05;;;;;;;20.02;42.42;102913.84;5032229;28;20350;-64
2022/03/23 00:46:52;;;;;;;14.00;7.60;;;;;;;19.99;42.42;102911.38;5031935;28;20029;-64
2022/03/23 00:49:18;;;;;;;10.57;7.05;;;;;;;19.98;42.45;102920.28;5031612;28;20274;-64
2022/03/23 00:51:43;;;;;;;10.77;7.93;;;;;;;20.01;42.41;102919.22;5031536;28;20026;-63
2022/03/23 00:54:09;;;;;;;11.80;7.53;;;;;;;19.99;42.18;102921.97;5034774;28;20022;-64
2022/03/23 00:56:37;;;;;;;10.95;7.68;;;;;;;19.96;42.30;102916.84;5034631;28;20052;-63
2022/03/23 00:59:03;;;;;;;9.85;7.00;;;;;;;19.96;42.16;102916.84;5035579;28;20104;-64
2022/03/23 01:01:29;;;;;;;11.70;8.15;;;;;;;19.94;42.29;102914.28;5035339;28;20108;-64
2022/03/23 01:03:54;;;;;;;10.63;7.55;;;;;;;19.92;42.18;102916.16;5035360;28;20101;-64
2022/03/23 01:06:20;;;;;;;10.02;7.30;;;;;;;19.90;42.06;102911.88;5035697;28;20108;-64
2022/03/23 01:08:45;;;;;;;11.55;8.13;;;;;;;19.90;42.17;102909.25;5034415;28;20029;-64
2022/03/23 01:11:10;;;;;;;10.43;7.68;;;;;;;19.86;42.22;102910.38;5035574;28;20029;-64
2022/03/23 01:13:36;;;;;;;11.93;7.87;;;;;;;19.84;42.21;102909.63;5034990;28;20103;-64
2022/03/23 01:16:01;;;;;;;10.45;7.47;;;;;;;19.82;42.20;102911.47;5034721;28;20022;-64
2022/03/23 01:18:27;;;;;;;10.48;7.10;;;;;;;19.85;42.22;102913.94;5035380;28;20025;-64
2022/03/23 01:20:52;;;;;;;12.00;7.30;;;;;;;19.83;42.12;102908.75;5035152;28;20071;-64
2022/03/23 01:23:17;;;;;;;11.68;8.23;;;;;;;19.81;41.98;102909.78;5034594;28;20108;-64
2022/03/23 01:25:42;;;;;;;11.43;8.57;;;;;;;19.81;42.05;102907.16;5034752;28;20030;-64
2022/03/23 01:28:09;;;;;;;12.67;7.87;;;;;;;19.75;42.07;102909.13;5035300;28;20290;-62
2022/03/23 01:30:35;;;;;;;10.45;7.15;;;;;;;19.73;42.06;102908.38;5034100;28;20091;-63
2022/03/23 01:33:01;;;;;;;10.15;7.38;;;;;;;19.72;42.14;102903.16;5035265;28;20108;-63
2022/03/23 01:35:26;;;;;;;12.25;7.50;;;;;;;19.68;42.41;102897.22;5035264;28;20064;-63
2022/03/23 01:37:51;;;;;;;10.90;7.97;;;;;;;19.62;42.39;102892.25;5034021;28;20240;-63
2022/03/23 01:40:17;;;;;;;10.80;7.57;;;;;;;19.63;42.12;102893.09;5035017;28;20072;-63
2022/03/23 01:42:42;;;;;;;13.10;8.25;;;;;;;19.61;42.27;102895.81;5034631;28;20028;-63
2022/03/23 01:45:09;;;;;;;12.63;8.23;;;;;;;19.61;42.32;102890.53;5034009;28;20025;-63
2022/03/23 01:47:34;;;;;;;13.25;7.32;;;;;;;19.60;42.10;102895.91;5034490;28;20053;-63
2022/03/23 01:49:59;;;;;;;13.98;8.18;;;;;;;19.56;42.28;102889.94;5035054;28;20056;-63
2022/03/23 01:52:28;;;;;;;12.13;8.05;;;;;;;19.55;42.31;102899.69;5034085;28;20045;-63
2022/03/23 01:54:55;;;;;;;13.38;7.72;;;;;;;19.53;42.08;102887.47;5034401;28;20033;-63
2022/03/23 01:57:21;;;;;;;11.80;8.48;;;;;;;19.52;42.43;102893.72;5034517;28;20449;-62
2022/03/23 01:59:56;;;;;;;13.05;7.78;;;;;;;19.48;42.46;102890.34;5033346;28;20040;-64
2022/03/23 02:02:21;;;;;;;11.32;7.63;;;;;;;19.49;42.35;102886.78;5034524;28;20457;-63
2022/03/23 02:04:47;;;;;;;11.90;8.13;;;;;;;19.50;42.21;102879.69;5033190;28;20025;-64
2022/03/23 02:07:13;;;;;;;11.00;7.90;;;;;;;19.48;41.79;102874.50;5034209;28;20673;-64
2022/03/23 02:09:39;;;;;;;9.38;7.40;;;;;;;19.48;42.35;102884.22;5033871;28;20278;-63
2022/03/23 02:12:08;;;;;;;11.80;7.10;;;;;;;19.47;42.10;102883.38;5033363;28;20052;-63
2022/03/23 02:14:35;;;;;;;12.23;8.25;;;;;;;19.43;42.33;102881.84;5034020;28;20615;-63
2022/03/23 02:17:00;;;;;;;12.98;8.27;;;;;;;19.44;42.10;102883.56;5034360;28;20025;-63
2022/03/23 02:19:26;;;;;;;12.50;8.53;;;;;;;19.46;42.21;102886.09;5033438;28;20504;-63
2022/03/23 02:21:55;;;;;;;11.98;7.38;;;;;;;19.45;42.20;102892.31;5033905;28;20325;-64
2022/03/23 02:24:23;;;;;;;12.75;7.80;;;;;;;19.41;42.10;102891.66;5034181;28;20033;-63
2022/03/23 02:26:49;;;;;;;9.73;7.05;;;;;;;19.37;42.27;102888.28;5032968;28;20029;-63
2022/03/23 02:29:15;;;;;;;11.35;8.13;;;;;;;19.36;42.20;102891.06;5034135;28;20042;-63
2022/03/23 02:31:40;;;;;;;11.60;7.43;;;;;;;19.30;42.21;102892.22;5033857;28;20547;-63
2022/03/23 02:34:06;;;;;;;13.07;7.33;;;;;;;19.30;42.25;102886.94;5033366;28;20040;-63
2022/03/23 02:36:31;;;;;;;11.75;7.93;;;;;;;19.29;42.54;102884.38;5034021;28;20278;-63
2022/03/23 02:38:57;;;;;;;11.55;7.75;;;;;;;19.27;42.38;102879.16;5033549;28;20044;-63
2022/03/23 02:41:22;;;;;;;13.55;8.27;;;;;;;19.31;42.09;102882.50;5032810;28;20469;-63
2022/03/23 02:43:48;;;;;;;10.15;7.75;;;;;;;19.29;42.17;102884.38;5033530;28;20021;-64
2022/03/23 02:46:19;;;;;;;10.73;7.75;;;;;;;19.27;42.14;102883.63;5033835;28;20100;-63
2022/03/23 02:48:45;;;;;;;13.60;7.68;;;;;;;19.25;42.28;102878.41;5032652;28;20033;-63
2022/03/23 02:51:11;;;;;;;11.85;7.97;;;;;;;19.21;42.37;102877.69;5033746;28;20147;-63
2022/03/23 03:02:35;;;;;;;11.02;7.28;;;;;;;19.18;42.28;102877.91;5038478;28;20040;-63
2022/03/23 03:05:01;;;;;;;11.48;7.63;;;;;;;19.19;42.22;102884.88;5033330;28;20413;-63
2022/03/23 03:07:26;;;;;;;11.27;7.75;;;;;;;19.17;42.22;102883.25;5033438;28;20022;-63
2022/03/23 03:09:51;;;;;;;10.60;7.93;;;;;;;19.17;42.29;102881.47;5032267;28;20424;-63
2022/03/23 03:12:17;;;;;;;13.15;7.82;;;;;;;19.16;42.16;102882.38;5032993;28;20329;-63
2022/03/23 03:14:43;;;;;;;10.65;7.43;;;;;;;19.16;42.16;102882.38;5032905;28;20029;-63
2022/03/23 03:17:08;;;;;;;9.90;6.85;;;;;;;19.14;42.48;102884.25;5032210;28;20031;-63
2022/03/23 03:19:35;;;;;;;10.93;7.33;;;;;;;19.13;42.08;102884.34;5032932;28;20060;-63
2022/03/23 03:22:01;;;;;;;12.40;7.72;;;;;;;19.11;42.28;102879.13;5033290;28;20274;-63
2022/03/23 03:24:27;;;;;;;11.32;7.70;;;;;;;19.12;42.04;102883.50;5032363;28;20037;-63
2022/03/23 03:26:53;;;;;;;11.63;7.18;;;;;;;19.10;42.20;102888.00;5032837;28;20029;-63
2022/03/23 03:29:18;;;;;;;11.18;7.32;;;;;;;19.09;41.95;102891.59;5032317;28;20022;-63
2022/03/23 03:31:43;;;;;;;11.68;7.45;;;;;;;19.08;41.88;102896.97;5032879;28;20052;-63
2022/03/23 03:34:09;;;;;;;11.83;7.30;;;;;;;19.04;42.19;102890.97;5033124;28;20030;-63
2022/03/23 03:36:36;;;;;;;14.05;7.95;;;;;;;19.02;41.86;102890.19;5032026;28;20862;-63
2022/03/23 03:39:01;;;;;;;11.60;7.50;;;;;;;19.03;42.20;102886.63;5033051;28;20128;-63
2022/03/23 03:41:26;;;;;;;13.23;7.82;;;;;;;19.02;42.10;102890.19;5033122;28;20060;-63
2022/03/23 03:43:52;;;;;;;13.37;8.10;;;;;;;19.02;42.16;102884.91;5031911;28;20030;-63
2022/03/23 03:46:17;;;;;;;9.80;7.00;;;;;;;19.02;41.99;102885.75;5033157;28;20286;-63
2022/03/23 03:48:43;;;;;;;11.25;7.78;;;;;;;18.98;42.09;102884.22;5032585;28;20025;-63
2022/03/23 03:51:08;;;;;;;10.35;7.30;;;;;;;19.01;42.16;102889.34;5031888;28;20022;-64
2022/03/23 03:53:35;;;;;;;10.90;7.25;;;;;;;19.01;41.83;102892.00;5032786;28;20083;-64
2022/03/23 03:56:00;;;;;;;11.38;7.07;;;;;;;19.01;41.83;102893.78;5032914;28;20380;-63
2022/03/23 03:58:26;;;;;;;11.05;7.78;;;;;;;19.01;41.76;102894.63;5031717;28;20022;-62
2022/03/23 04:00:51;;;;;;;12.30;8.17;;;;;;;18.97;41.74;102894.88;5032340;28;20025;-62
2022/03/23 04:03:16;;;;;;;11.57;7.75;;;;;;;18.96;41.75;102894.03;5032855;28;20021;-62
2022/03/23 04:05:42;;;;;;;10.23;7.60;;;;;;;18.95;41.80;102886.19;5031687;28;20108;-62
2022/03/23 04:08:08;;;;;;;10.70;7.28;;;;;;;18.95;41.99;102896.75;5032434;28;20469;-62
2022/03/23 04:10:34;;;;;;;11.50;7.85;;;;;;;18.94;41.79;102895.03;5032299;28;20021;-62
2022/03/23 04:12:59;;;;;;;13.20;8.15;;;;;;;18.95;41.92;102900.25;5031677;28;20045;-63
2022/03/23 04:15:27;;;;;;;11.50;7.97;;;;;;;18.95;41.58;102902.88;5032730;28;20459;-63
2022/03/23 04:17:57;;;;;;;11.45;7.80;;;;;;;18.93;41.85;102902.13;5032127;28;20030;-63
2022/03/23 04:20:23;;;;;;;11.32;7.93;;;;;;;18.92;41.89;102905.69;5031825;28;20030;-62
2022/03/23 04:22:48;;;;;;;11.27;7.80;;;;;;;18.91;41.84;102903.13;5032254;28;20029;-64
2022/03/23 04:25:15;;;;;;;10.82;7.70;;;;;;;18.90;41.54;102904.03;5032370;28;20088;-62
2022/03/23 04:27:47;;;;;;;11.88;7.68;;;;;;;18.89;41.72;102897.06;5032351;28;20053;-63
2022/03/23 04:30:13;;;;;;;11.88;7.68;;;;;;;18.87;41.77;102904.19;5036177;28;20473;-63
2022/03/23 04:32:38;;;;;;;12.48;8.05;;;;;;;18.88;41.71;102898.84;5035357;28;20026;-63
2022/03/23 04:35:05;;;;;;;13.67;8.50;;;;;;;18.85;41.74;102899.88;5036335;28;20047;-64
2022/03/23 04:37:30;;;;;;;10.73;8.10;;;;;;;18.82;41.56;102894.72;5036219;28;20321;-64
2022/03/23 04:39:55;;;;;;;12.50;7.53;;;;;;;18.82;41.74;102902.63;5035170;28;20440;-63
2022/03/23 04:42:20;;;;;;;12.57;7.93;;;;;;;18.81;41.81;102908.00;5036025;28;20022;-63
2022/03/23 04:44:46;;;;;;;11.70;7.70;;;;;;;18.84;41.40;102903.44;5035895;28;20275;-64
2022/03/23 04:47:11;;;;;;;11.43;8.63;;;;;;;18.83;41.12;102909.66;5035478;28;20026;-64
2022/03/23 04:49:36;;;;;;;12.37;8.40;;;;;;;18.89;41.46;102912.94;5035481;28;20099;-64
2022/03/23 04:52:04;;;;;;;11.33;7.80;;;;;;;18.93;41.17;102917.09;5035834;28;20283;-63
2022/03/23 04:54:29;;;;;;;13.60;7.82;;;;;;;18.95;41.15;102915.25;5035410;28;20286;-64
2022/03/23 04:56:54;;;;;;;11.13;8.03;;;;;;;18.98;41.16;102912.44;5035680;28;20084;-64
2022/03/23 04:59:21;;;;;;;11.77;7.85;;;;;;;19.00;41.04;102922.00;5035637;28;20086;-63
2022/03/23 05:01:47;;;;;;;12.68;7.90;;;;;;;19.02;40.88;102922.75;5034734;28;20022;-63
2022/03/23 05:04:12;;;;;;;11.13;7.95;;;;;;;19.06;40.83;102930.53;5035409;28;20033;-63
2022/03/23 05:06:37;;;;;;;12.33;7.73;;;;;;;19.07;40.79;102927.78;5035169;28;20480;-63
2022/03/23 05:09:02;;;;;;;10.52;7.80;;;;;;;19.09;40.66;102936.53;5034471;28;20631;-63
2022/03/23 05:11:27;;;;;;;10.33;7.40;;;;;;;19.09;40.40;102938.28;5035347;28;20026;-63
2022/03/23 05:13:53;;;;;;;11.30;7.47;;;;;;;19.09;40.25;102936.53;5034805;28;20746;-63
2022/03/23 05:16:19;;;;;;;10.63;7.60;;;;;;;19.08;40.23;102932.16;5034666;28;20685;-63
2022/03/23 05:18:44;;;;;;;12.50;7.90;;;;;;;19.07;40.36;102933.09;5034902;28;20025;-62
2022/03/23 05:21:09;;;;;;;11.32;7.55;;;;;;;19.08;40.09;102929.53;5035198;28;20043;-63
2022/03/23 05:23:35;;;;;;;10.80;7.60;;;;;;;19.06;40.10;102926.09;5033871;28;20037;-63
2022/03/23 05:26:00;;;;;;;12.75;8.07;;;;;;;19.04;40.14;102927.97;5035051;28;20275;-62
2022/03/23 05:28:26;;;;;;;10.75;8.18;;;;;;;19.05;40.25;102934.97;5035111;28;20075;-63
2022/03/23 05:30:51;;;;;;;14.07;8.98;;;;;;;19.03;40.19;102935.03;5034126;28;20025;-63
2022/03/23 05:33:16;;;;;;;12.35;8.15;;;;;;;19.03;40.33;102942.13;5035087;28;20021;-63
2022/03/23 05:35:42;;;;;;;12.77;8.03;;;;;;;18.99;40.34;102936.16;5034676;28;20029;-63
2022/03/23 05:38:07;;;;;;;13.93;8.80;;;;;;;18.99;40.10;102938.78;5034078;28;20404;-63
2022/03/23 05:40:32;;;;;;;12.80;8.70;;;;;;;18.99;40.25;102938.78;5033358;28;20108;-63
2022/03/23 05:42:57;;;;;;;13.13;9.02;;;;;;;19.05;40.44;102940.25;5033701;28;20097;-63
2022/03/23 05:45:23;;;;;;;13.00;7.95;;;;;;;19.12;40.48;102940.78;5034693;28;20025;-63
2022/03/23 05:47:52;;;;;;;11.73;8.25;;;;;;;19.14;40.51;102944.22;5034585;28;20029;-63
2022/03/23 05:50:17;;;;;;;11.32;7.63;;;;;;;19.18;40.52;102951.03;5034004;28;20021;-63
2022/03/23 05:52:43;;;;;;;11.65;8.35;;;;;;;19.20;40.51;102954.44;5034353;28;20029;-63
2022/03/23 05:55:08;;;;;;;12.27;8.40;;;;;;;19.18;40.19;102946.63;5034410;28;20099;-63
2022/03/23 05:57:35;;;;;;;11.25;7.60;;;;;;;19.22;40.28;102931.44;5033548;28;20424;-63
2022/03/23 06:00:00;;;;;;;12.23;7.82;;;;;;;19.21;40.29;102946.44;5034430;28;20108;-63
2022/03/23 06:02:26;;;;;;;10.90;7.38;;;;;;;19.23;40.25;102948.16;5034324;28;20100;-63
2022/03/23 06:04:51;;;;;;;11.52;7.20;;;;;;;19.23;40.01;102954.28;5033336;28;20018;-63
2022/03/23 06:07:19;;;;;;;11.15;7.90;;;;;;;19.22;39.94;102957.88;5034240;28;20516;-63
2022/03/23 06:09:45;;;;;;;11.77;8.13;;;;;;;19.25;40.09;102956.84;5033899;28;20113;-63
2022/03/23 06:12:12;;;;;;;10.48;7.68;;;;;;;19.31;40.33;102948.59;5033313;28;20132;-64
2022/03/23 06:14:42;;;;;;;10.20;7.40;;;;;;;19.42;40.44;102954.16;5033918;28;20354;-63
2022/03/23 06:17:07;;;;;;;12.38;8.32;;;;;;;19.51;40.84;102952.81;5034143;28;20025;-63
2022/03/23 06:19:33;;;;;;;11.00;7.05;;;;;;;19.58;40.79;102954.19;5033243;28;20036;-63
2022/03/23 06:21:58;;;;;;;11.05;7.65;;;;;;;19.64;40.88;102958.28;5033748;28;20029;-63
2022/03/23 06:24:23;;;;;;;11.43;7.33;;;;;;;19.68;40.82;102955.41;5033790;28;20025;-63
2022/03/23 06:26:48;;;;;;;11.13;7.60;;;;;;;19.74;40.80;102957.72;5033091;28;20026;-63
2022/03/23 06:29:13;;;;;;;11.77;7.10;;;;;;;19.80;41.42;102956.53;5033898;28;20275;-63
2022/03/23 06:31:39;;;;;;;11.37;7.47;;;;;;;19.84;41.10;102958.09;5033600;28;20796;-64
2022/03/23 06:34:05;;;;;;;13.23;6.88;;;;;;;19.88;41.22;102962.25;5032994;28;20274;-63
2022/03/23 06:36:30;;;;;;;10.60;7.15;;;;;;;19.89;41.06;102960.47;5033711;28;20017;-63
2022/03/23 06:38:55;;;;;;;11.52;7.15;;;;;;;19.92;41.43;102955.88;5033272;28;20114;-63
2022/03/23 06:41:20;;;;;;;10.20;6.97;;;;;;;20.01;41.22;102965.09;5033082;28;20033;-63
2022/03/23 06:43:46;;;;;;;9.47;6.00;;;;;;;20.07;41.46;102971.81;5033436;28;20742;-63
2022/03/23 06:46:11;;;;;;;10.63;6.50;;;;;;;20.09;41.42;102975.22;5032918;28;20784;-63
2022/03/23 06:48:36;;;;;;;10.05;6.70;;;;;;;20.11;41.50;102981.31;5033217;28;20564;-63
2022/03/23 06:51:03;;;;;;;10.65;6.70;;;;;;;20.13;41.18;102971.47;5033138;28;20021;-63
2022/03/23 06:53:29;;;;;;;9.93;6.55;;;;;;;20.17;41.47;102980.97;5032615;28;20099;-63
2022/03/23 06:55:57;;;;;;;12.27;8.00;;;;;;;20.14;39.23;102975.84;5033159;28;20469;-64
2022/03/23 06:58:22;;;;;;;10.48;7.72;;;;;;;20.14;40.63;102975.84;5033462;28;20026;-63
2022/03/23 07:00:47;;;;;;;11.07;7.00;;;;;;;20.15;41.05;102980.19;5032273;28;20354;-63
2022/03/23 07:03:15;;;;;;;8.13;5.73;;;;;;;20.21;41.20;102981.63;5033419;28;20535;-64
2022/03/23 07:05:41;;;;;;;11.07;6.93;;;;;;;20.24;41.33;102982.31;5032994;28;20270;-64
2022/03/23 07:10:50;;;;;;;10.03;6.40;;;;;;;20.23;41.30;102988.53;5032891;28;20025;-64
2022/03/23 07:13:15;;;;;;;9.52;6.78;;;;;;;20.20;41.34;102982.56;5032810;28;20283;-65
2022/03/23 07:15:42;;;;;;;10.55;7.53;;;;;;;20.21;41.65;102990.44;5032081;28;20028;-65
2022/03/23 07:18:08;;;;;;;10.65;7.22;;;;;;;20.20;41.81;102985.22;5032982;28;20029;-64
2022/03/23 07:20:33;;;;;;;10.15;7.15;;;;;;;20.20;41.69;102993.16;5032721;28;20044;-64
2022/03/23 07:22:59;;;;;;;13.68;7.25;;;;;;;20.21;41.80;102994.88;5032068;28;20427;-65
2022/03/23 07:25:25;;;;;;;13.20;7.13;;;;;;;20.21;41.90;102994.88;5033092;28;20036;-64
2022/03/23 07:27:50;;;;;;;10.32;7.18;;;;;;;20.21;41.93;103001.00;5032646;28;20029;-64
2022/03/23 07:30:15;;;;;;;9.75;7.15;;;;;;;20.24;41.97;102992.91;5032035;28;20033;-64
2022/03/23 07:32:41;;;;;;;10.40;7.27;;;;;;;20.24;41.94;102997.34;5032625;28;20037;-65
2022/03/23 07:35:07;;;;;;;11.45;8.00;;;;;;;20.24;42.03;102995.56;5032776;28;20374;-64
2022/03/23 07:37:33;;;;;;;17.17;6.93;;;;;;;20.24;42.10;103000.84;5032374;28;20084;-64
2022/03/23 07:39:58;;;;;;;11.25;6.68;;;;;;;20.25;42.25;102994.63;5032853;28;20029;-63
2022/03/23 07:42:23;;;;;;;11.33;6.87;;;;;;;20.29;42.17;103000.59;5032634;28;20021;-62
2022/03/23 07:44:51;;;;;;;10.80;7.10;;;;;;;20.32;42.15;103002.22;5031882;28;20310;-63
2022/03/23 07:47:17;;;;;;;10.48;7.35;;;;;;;20.34;42.26;103002.97;5032820;28;20271;-63
2022/03/23 07:49:42;;;;;;;13.60;8.10;;;;;;;20.38;40.85;103007.16;5031955;28;20071;-65
2022/03/23 07:52:09;;;;;;;14.00;7.65;;;;;;;20.42;41.65;103006.03;5032864;28;20332;-64
2022/03/23 07:54:35;;;;;;;11.73;7.40;;;;;;;20.41;41.82;103010.50;5032705;28;20056;-63
2022/03/23 07:57:00;;;;;;;13.88;6.90;;;;;;;20.43;41.94;103013.91;5031951;28;20071;-62
2022/03/23 07:59:26;;;;;;;10.27;7.05;;;;;;;20.44;41.91;103017.38;5032488;28;20029;-63
2022/03/23 08:01:51;;;;;;;10.95;7.03;;;;;;;20.53;41.66;103014.22;5032353;28;20071;-63
2022/03/23 08:04:16;;;;;;;12.57;7.43;;;;;;;20.60;41.27;103020.00;5035308;28;20026;-64
2022/03/23 08:06:41;;;;;;;11.37;7.13;;;;;;;20.68;41.23;103019.59;5036891;28;20785;-64
2022/03/23 08:09:07;;;;;;;13.23;7.30;;;;;;;20.71;41.38;103019.44;5036604;28;20634;-63
2022/03/23 08:11:33;;;;;;;12.02;7.65;;;;;;;20.75;41.29;103019.16;5036131;28;20033;-64
2022/03/23 08:13:58;;;;;;;11.20;6.53;;;;;;;20.83;41.23;103018.72;5036460;28;20489;-65
2022/03/23 08:16:24;;;;;;;11.60;7.07;;;;;;;20.81;40.90;103021.47;5036705;28;20107;-64
2022/03/23 08:18:49;;;;;;;12.50;7.75;;;;;;;20.69;40.30;103021.31;5035579;28;20480;-64
2022/03/23 08:21:17;;;;;;;17.15;8.27;;;;;;;20.65;40.82;103018.84;5037202;28;20088;-66
2022/03/23 08:23:43;;;;;;;12.57;7.20;;;;;;;20.60;41.58;103012.94;5036255;28;20022;-62
2022/03/23 08:26:10;;;;;;;15.48;7.45;;;;;;;20.61;41.92;103019.91;5035609;28;20037;-63
2022/03/23 08:28:39;;;;;;;11.65;7.28;;;;;;;20.66;42.13;103019.69;5036032;28;20028;-65
2022/03/23 08:31:05;;;;;;;10.68;6.88;;;;;;;20.72;42.39;103018.50;5036257;28;20096;-64
2022/03/23 08:33:34;;;;;;;11.95;6.57;;;;;;;20.79;41.97;103020.69;5035383;28;20113;-65
2022/03/23 08:35:59;;;;;;;9.57;7.18;;;;;;;20.85;41.82;103019.47;5036502;28;20108;-67
2022/03/23 08:38:24;;;;;;;12.07;7.80;;;;;;;20.87;40.60;103019.38;5036001;28;20105;-64
2022/03/23 08:40:50;;;;;;;11.30;7.93;;;;;;;20.90;40.39;103020.03;5035080;28;20021;-64
2022/03/23 08:43:15;;;;;;;11.25;8.18;;;;;;;20.93;40.52;103019.03;5036098;28;20017;-63
2022/03/23 08:45:41;;;;;;;11.73;6.93;;;;;;;20.97;40.13;103018.75;5035632;28;20029;-64
2022/03/23 08:48:18;;;;;;;13.93;8.13;;;;;;;21.00;40.65;103020.38;5035068;28;20034;-65
2022/03/23 08:50:44;;;;;;;11.00;7.50;;;;;;;20.97;41.62;103023.22;5036195;28;20037;-65
2022/03/23 08:53:10;;;;;;;10.60;6.95;;;;;;;20.95;41.46;103025.06;5035306;28;20078;-65
2022/03/23 08:55:35;;;;;;;13.23;7.13;;;;;;;20.95;41.65;103030.38;5035801;28;20022;-65
2022/03/23 08:58:00;;;;;;;9.43;6.90;;;;;;;20.94;41.29;103024.25;5035767;28;20275;-65
2022/03/23 09:00:26;;;;;;;12.68;6.90;;;;;;;20.93;41.10;103013.72;5034789;28;20239;-65
2022/03/23 09:02:52;;;;;;;12.43;7.65;;;;;;;20.92;41.25;103020.84;5035512;28;20032;-65
2022/03/23 09:05:19;;;;;;;11.55;6.63;;;;;;;20.90;41.02;103024.50;5035833;28;20017;-65
2022/03/23 09:07:45;;;;;;;10.43;6.75;;;;;;;20.88;40.90;103021.09;5034667;28;20026;-65
2022/03/23 09:10:13;;;;;;;13.93;6.90;;;;;;;20.88;40.98;103021.09;5035547;28;20473;-65
2022/03/23 09:12:38;;;;;;;9.18;6.38;;;;;;;20.85;40.87;103016.81;5035230;28;20140;-65
2022/03/23 09:15:08;;;;;;;11.02;6.60;;;;;;;20.84;40.79;103025.75;5034392;28;20108;-64
2022/03/23 09:17:34;;;;;;;10.93;6.53;;;;;;;20.83;40.74;103021.38;5035267;28;20029;-64
2022/03/23 09:20:02;;;;;;;11.95;6.80;;;;;;;20.81;40.27;103021.47;5035642;28;20033;-63
2022/03/23 09:22:28;;;;;;;9.45;6.32;;;;;;;20.83;40.77;103024.03;5034722;28;20029;-64
2022/03/23 09:24:53;;;;;;;10.90;6.68;;;;;;;20.84;40.92;103023.09;5035206;28;20105;-67
2022/03/23 09:27:19;;;;;;;9.43;6.68;;;;;;;20.87;40.33;103014.09;5035082;28;20476;-67
2022/03/23 09:29:45;;;;;;;10.35;7.43;;;;;;;20.84;39.75;103015.13;5034044;28;20026;-68
2022/03/23 09:32:12;;;;;;;11.60;6.97;;;;;;;20.88;40.85;103018.44;5035421;28;20022;-68
2022/03/23 09:34:38;;;;;;;13.85;7.78;;;;;;;20.93;40.58;103011.91;5036061;28;20045;-69
2022/03/23 09:39:49;;;;;;;9.25;6.53;;;;;;;20.97;40.82;103021.41;5034909;28;20400;-69
2022/03/23 09:42:18;;;;;;;11.63;6.70;;;;;;;20.93;41.13;103017.22;5034279;28;20026;-69
2022/03/23 09:44:45;;;;;;;10.52;6.50;;;;;;;20.91;41.36;103012.97;5034837;28;20022;-68
2022/03/23 09:47:11;;;;;;;10.40;6.40;;;;;;;20.90;41.38;103025.34;5034882;28;20045;-69
2022/03/23 09:49:37;;;;;;;11.17;6.70;;;;;;;20.86;41.25;103013.25;5033891;28;20056;-68
2022/03/23 09:52:04;;;;;;;10.60;6.40;;;;;;;20.88;41.36;103016.63;5034748;28;20316;-69
2022/03/23 09:54:30;;;;;;;10.52;6.20;;;;;;;20.86;41.65;103023.84;5034863;28;20155;-69
2022/03/23 09:56:55;;;;;;;10.85;6.35;;;;;;;20.84;41.67;103029.22;5033988;28;20116;-68
2022/03/23 09:59:20;;;;;;;9.13;5.93;;;;;;;20.83;41.75;103022.22;5034753;28;20029;-70
2022/03/23 10:01:51;;;;;;;8.52;6.03;;;;;;;20.81;42.21;103024.09;5034587;28;20024;-69
2022/03/23 10:04:17;;;;;;;10.10;5.88;;;;;;;20.81;42.14;103026.75;5034062;28;20025;-69
2022/03/23 10:07:14;;;;;;;11.32;6.75;;;;;;;20.79;42.36;103023.34;5034193;28;20614;-70
2022/03/23 10:10:10;;;;;;;9.07;6.22;;;;;;;20.78;41.88;103031.41;5034330;28;20048;-68
2022/03/23 10:13:25;;;;;;;9.63;5.53;;;;;;;20.75;42.18;103031.56;5034022;28;20041;-65
2022/03/23 10:15:50;;;;;;;8.95;5.18;;;;;;;20.77;42.10;103030.50;5033985;28;20029;-67
2022/03/23 10:18:31;;;;;;;8.93;5.50;;;;;;;20.85;41.83;103030.06;5034048;28;20087;-67
2022/03/23 10:20:57;;;;;;;10.30;5.85;;;;;;;20.90;41.60;103027.16;5034126;28;20021;-67
2022/03/23 10:23:22;;;;;;;9.53;5.97;;;;;;;20.92;41.58;103026.13;5034388;28;20195;-69
2022/03/23 10:25:47;;;;;;;9.48;5.80;;;;;;;20.94;41.75;103023.41;5032434;28;20274;-67
2022/03/23 10:28:14;;;;;;;12.10;6.45;;;;;;;20.93;41.72;103027.81;5033817;28;20038;-67
2022/03/23 10:30:43;;;;;;;8.68;5.50;;;;;;;20.93;41.74;103032.28;5033433;28;20162;-67
2022/03/23 10:33:23;;;;;;;8.80;5.80;;;;;;;20.91;41.72;103019.13;5032939;28;20473;-64
2022/03/23 10:35:50;;;;;;;12.32;5.75;;;;;;;20.89;41.64;103018.34;5033624;28;20021;-65
2022/03/23 10:38:21;;;;;;;9.57;5.45;;;;;;;20.90;42.05;103021.84;5033060;28;20021;-65
2022/03/23 10:40:49;;;;;;;9.05;5.75;;;;;;;20.90;42.03;103021.84;5033392;28;20021;-65
2022/03/23 10:43:18;;;;;;;10.15;5.68;;;;;;;20.86;42.05;103018.53;5033574;28;20499;-65
2022/03/23 10:45:43;;;;;;;9.63;5.72;;;;;;;20.85;42.33;103019.47;5032628;28;20071;-65
2022/03/23 10:48:15;;;;;;;9.43;5.63;;;;;;;20.82;42.36;103012.56;5033684;28;20507;-66
2022/03/23 10:50:58;;;;;;;8.93;5.50;;;;;;;20.82;42.62;103012.56;5033141;28;20053;-65
2022/03/23 10:53:50;;;;;;;8.93;5.72;;;;;;;20.79;42.51;103009.22;5032857;28;20045;-66
2022/03/23 10:56:15;;;;;;;11.48;5.55;;;;;;;20.80;42.51;103008.28;5031326;28;20489;-66
2022/03/23 10:58:41;;;;;;;7.93;5.32;;;;;;;20.79;42.74;103006.56;5033036;28;20040;-65
2022/03/23 11:01:07;;;;;;;9.75;5.43;;;;;;;20.78;42.82;103005.75;5032469;28;20018;-66
2022/03/23 11:03:35;;;;;;;10.02;5.68;;;;;;;20.76;42.97;103009.41;5033163;28;20029;-67
2022/03/23 11:06:01;;;;;;;9.77;5.90;;;;;;;20.76;43.17;103006.75;5033070;28;20326;-66
2022/03/23 11:08:26;;;;;;;9.83;5.83;;;;;;;20.74;42.83;103009.50;5032459;28;20071;-65
2022/03/23 11:16:35;;;;;;;9.05;5.20;;;;;;;20.77;42.34;103008.47;5032822;28;20512;-68
2022/03/23 11:19:12;;;;;;;10.20;5.80;;;;;;;20.76;42.30;103006.75;5033183;28;20040;-68
2022/03/23 11:21:57;;;;;;;8.90;5.50;;;;;;;20.80;41.48;103006.50;5031764;28;20021;-68
2022/03/23 11:24:23;;;;;;;8.82;5.50;;;;;;;20.88;41.60;102998.09;5033406;28;20467;-71
2022/03/23 11:26:50;;;;;;;9.18;5.80;;;;;;;20.91;41.70;103002.38;5033800;28;20049;-70
2022/03/23 11:29:17;;;;;;;8.95;5.25;;;;;;;20.94;41.54;102996.88;5033240;28;20057;-69
2022/03/23 11:31:44;;;;;;;6.75;4.53;;;;;;;20.91;41.64;102984.66;5032852;28;20388;-70
2022/03/23 11:34:13;;;;;;;7.75;5.38;;;;;;;21.04;41.16;102992.72;5032907;28;20453;-69
2022/03/23 11:36:39;;;;;;;10.20;5.20;;;;;;;21.06;41.89;102996.16;5031941;28;20048;-69